createdAt,value
2022-12-19T00:02:01.224Z,11.00
2022-12-19T00:04:29.756Z,10.87
2022-12-19T00:06:59.629Z,10.70
2022-12-19T00:09:28.754Z,9.33
2022-12-19T00:11:57.128Z,11.30
2022-12-19T00:14:25.490Z,9.97
2022-12-19T00:16:55.186Z,10.57
2022-12-19T00:19:25.512Z,13.50
2022-12-19T00:21:53.861Z,12.03
2022-12-19T00:24:22.251Z,11.57
2022-12-19T00:26:50.899Z,9.87
2022-12-19T00:29:19.371Z,13.50
2022-12-19T00:31:47.896Z,11.83
2022-12-19T00:34:16.370Z,10.30
2022-12-19T00:36:46.141Z,10.47
2022-12-19T00:39:14.528Z,13.37
2022-12-19T00:41:43.655Z,11.00
2022-12-19T00:44:15.020Z,11.77
2022-12-19T00:46:51.035Z,12.43
2022-12-19T00:49:22.128Z,11.67
2022-12-19T00:51:51.844Z,14.07
2022-12-19T00:54:20.321Z,9.10
2022-12-19T00:56:48.938Z,9.67
2022-12-19T00:59:18.895Z,12.03
2022-12-19T01:01:55.429Z,12.70
2022-12-19T01:04:28.625Z,12.77
2022-12-19T01:07:01.843Z,12.50
2022-12-19T01:09:30.738Z,11.03
2022-12-19T01:12:16.518Z,10.27
2022-12-19T01:14:44.895Z,10.07
2022-12-19T01:17:13.472Z,10.03
2022-12-19T01:19:44.440Z,11.13
2022-12-19T01:22:15.008Z,9.87
2022-12-19T01:24:43.562Z,12.10
2022-12-19T01:27:12.339Z,10.97
2022-12-19T01:29:52.178Z,10.33
2022-12-19T01:32:23.347Z,10.50
2022-12-19T01:34:51.707Z,10.80
2022-12-19T01:37:21.858Z,11.07
2022-12-19T01:39:50.392Z,9.60
2022-12-19T01:42:23.057Z,8.43
2022-12-19T01:45:32.045Z,11.77
2022-12-19T01:48:21.623Z,8.60
2022-12-19T01:51:01.739Z,8.67
2022-12-19T01:53:48.756Z,9.50
2022-12-19T01:56:23.687Z,9.57
2022-12-19T01:59:05.978Z,9.83
2022-12-19T02:01:36.375Z,8.63
2022-12-19T02:04:21.047Z,8.97
2022-12-19T02:06:51.084Z,9.57
2022-12-19T02:09:21.460Z,8.87
2022-12-19T02:11:49.904Z,8.87
2022-12-19T02:14:18.395Z,10.53
2022-12-19T02:16:56.020Z,10.67
2022-12-19T02:20:22.332Z,11.20
2022-12-19T02:23:16.267Z,9.57
2022-12-19T02:26:14.494Z,8.83
2022-12-19T02:29:10.095Z,9.30
2022-12-19T02:31:49.449Z,9.73
2022-12-19T02:34:27.518Z,9.40
2022-12-19T02:37:01.382Z,9.20
2022-12-19T02:39:37.532Z,7.70
2022-12-19T02:42:10.941Z,9.23
2022-12-19T02:44:46.234Z,8.17
2022-12-19T02:47:16.852Z,9.40
2022-12-19T02:49:45.227Z,10.43
2022-12-19T02:52:50.290Z,9.80
2022-12-19T02:55:25.295Z,10.60
2022-12-19T02:58:30.601Z,10.37
2022-12-19T03:01:07.397Z,9.43
2022-12-19T03:03:47.112Z,7.90
2022-12-19T03:06:25.919Z,10.03
2022-12-19T03:09:03.273Z,8.67
2022-12-19T03:11:37.252Z,9.73
2022-12-19T03:14:09.798Z,9.73
2022-12-19T03:16:39.193Z,10.17
2022-12-19T03:19:14.176Z,9.03
2022-12-19T03:21:46.693Z,11.03
2022-12-19T03:24:16.203Z,9.80
2022-12-19T03:26:51.535Z,8.53
2022-12-19T03:29:26.712Z,10.17
2022-12-19T03:31:57.092Z,10.20
2022-12-19T03:34:31.467Z,10.23
2022-12-19T03:37:05.454Z,10.63
2022-12-19T03:39:35.560Z,9.80
2022-12-19T03:42:23.919Z,10.40
2022-12-19T03:44:54.851Z,9.67
2022-12-19T03:47:32.275Z,11.37
2022-12-19T03:50:02.537Z,9.57
2022-12-19T03:52:40.453Z,9.70
2022-12-19T03:55:18.193Z,9.57
2022-12-19T03:57:55.625Z,8.50
2022-12-19T04:00:25.465Z,10.03
2022-12-19T04:02:58.497Z,10.13
2022-12-19T04:05:30.459Z,8.97
2022-12-19T04:08:03.298Z,11.47
2022-12-19T04:10:33.976Z,11.63
2022-12-19T04:13:07.277Z,8.90
2022-12-19T04:15:46.156Z,9.60
2022-12-19T04:18:16.208Z,10.20
2022-12-19T04:20:53.852Z,10.97
2022-12-19T04:23:30.122Z,9.00
2022-12-19T04:26:03.259Z,12.50
2022-12-19T04:28:37.747Z,11.57
2022-12-19T04:31:07.806Z,11.13
2022-12-19T04:33:36.205Z,11.47
2022-12-19T04:36:06.598Z,10.50
2022-12-19T04:38:35.004Z,11.03
2022-12-19T04:41:03.448Z,10.23
2022-12-19T04:43:31.833Z,11.70
2022-12-19T04:46:00.226Z,12.10
2022-12-19T04:48:28.804Z,10.43
2022-12-19T04:50:57.615Z,12.60
2022-12-19T04:53:27.317Z,11.63
2022-12-19T04:56:02.472Z,11.47
2022-12-19T04:58:31.220Z,11.87
2022-12-19T05:01:03.381Z,10.37
2022-12-19T05:03:32.059Z,12.57
2022-12-19T05:06:08.927Z,12.30
2022-12-19T05:08:41.149Z,13.77
2022-12-19T05:11:14.586Z,10.53
2022-12-19T05:13:47.495Z,13.77
2022-12-19T05:16:16.133Z,11.47
2022-12-19T05:18:45.332Z,12.73
2022-12-19T05:21:14.155Z,13.63
2022-12-19T05:23:44.084Z,12.00
2022-12-19T05:26:13.342Z,13.70
2022-12-19T05:28:42.082Z,14.13
2022-12-19T05:31:13.204Z,13.50
2022-12-19T05:33:43.357Z,16.17
2022-12-19T05:36:13.198Z,13.87
2022-12-19T05:38:43.589Z,13.37
2022-12-19T05:41:19.282Z,12.57
2022-12-19T05:43:52.675Z,13.23
2022-12-19T05:46:21.767Z,14.60
2022-12-19T05:48:50.815Z,12.97
2022-12-19T05:51:20.949Z,13.50
2022-12-19T05:53:50.832Z,13.07
2022-12-19T05:56:21.310Z,13.07
2022-12-19T05:58:51.011Z,12.20
2022-12-19T06:01:22.714Z,12.87
2022-12-19T06:03:51.802Z,15.10
2022-12-19T06:06:22.858Z,12.37
2022-12-19T06:08:57.542Z,12.93
2022-12-19T06:11:26.900Z,14.57
2022-12-19T06:13:55.560Z,14.13
2022-12-19T06:16:25.420Z,11.90
2022-12-19T06:18:53.825Z,11.87
2022-12-19T06:21:24.777Z,13.00
2022-12-19T06:23:55.554Z,13.57
2022-12-19T06:26:24.171Z,14.03
2022-12-19T06:28:53.951Z,13.97
2022-12-19T06:31:24.955Z,13.23
2022-12-19T06:33:53.794Z,14.13
2022-12-19T06:36:24.796Z,11.90
2022-12-19T06:38:57.880Z,13.93
2022-12-19T06:41:44.377Z,13.27
2022-12-19T06:44:15.991Z,12.77
2022-12-19T06:46:45.150Z,13.50
2022-12-19T06:49:13.648Z,15.30
2022-12-19T06:51:42.811Z,14.53
2022-12-19T06:54:13.586Z,12.13
2022-12-19T06:56:44.337Z,14.73
2022-12-19T06:59:15.354Z,12.03
2022-12-19T07:01:57.130Z,13.23
2022-12-19T07:04:32.359Z,12.57
2022-12-19T07:07:00.798Z,13.37
2022-12-19T07:09:31.670Z,12.50
2022-12-19T07:12:00.110Z,14.13
2022-12-19T07:14:28.546Z,12.97
2022-12-19T07:16:59.347Z,12.60
2022-12-19T07:19:28.883Z,13.60
2022-12-19T07:21:57.611Z,13.27
2022-12-19T07:24:26.015Z,13.07
2022-12-19T07:26:55.815Z,11.23
2022-12-19T07:29:24.181Z,13.20
2022-12-19T07:31:52.588Z,12.17
2022-12-19T07:34:21.216Z,12.13
2022-12-19T07:36:52.678Z,12.63
2022-12-19T07:39:21.880Z,11.87
2022-12-19T07:41:50.278Z,12.30
2022-12-19T07:44:20.036Z,9.33
2022-12-19T07:46:48.412Z,11.50
2022-12-19T07:49:22.336Z,12.03
2022-12-19T07:51:51.766Z,12.57
2022-12-19T07:54:20.151Z,10.90
2022-12-19T07:56:48.670Z,10.83
2022-12-19T07:59:17.225Z,13.30
2022-12-19T08:01:47.147Z,12.50
2022-12-19T08:04:15.727Z,12.77
2022-12-19T08:06:44.820Z,12.63
2022-12-19T08:09:13.509Z,11.83
2022-12-19T08:11:41.892Z,13.13
2022-12-19T08:14:10.346Z,10.93
2022-12-19T08:17:03.178Z,13.57
2022-12-19T08:19:28.555Z,12.27
2022-12-19T08:21:57.063Z,13.00
2022-12-19T08:24:25.507Z,12.40
2022-12-19T08:26:53.955Z,12.30
2022-12-19T08:29:22.616Z,12.93
2022-12-19T08:31:51.160Z,10.97
2022-12-19T08:34:19.905Z,14.47
2022-12-19T08:36:49.712Z,12.17
2022-12-19T08:39:18.325Z,13.50
2022-12-19T08:41:46.729Z,11.80
2022-12-19T08:44:15.506Z,11.77
2022-12-19T08:46:49.665Z,12.03
2022-12-19T08:49:19.759Z,11.50
2022-12-19T08:51:50.240Z,12.50
2022-12-19T08:54:18.780Z,10.50
2022-12-19T08:56:47.376Z,11.40
2022-12-19T08:59:23.635Z,10.63
2022-12-19T09:01:59.467Z,12.67
2022-12-19T09:05:09.580Z,12.43
2022-12-19T09:07:18.188Z,13.32
2022-12-19T09:09:46.748Z,12.40
2022-12-19T09:12:17.199Z,10.90
2022-12-19T09:14:45.839Z,11.07
2022-12-19T09:17:14.645Z,12.60
2022-12-19T09:19:45.917Z,10.10
2022-12-19T09:22:17.970Z,10.10
2022-12-19T09:24:46.920Z,11.07
2022-12-19T09:27:15.343Z,12.17
2022-12-19T09:29:44.412Z,10.80
2022-12-19T09:32:13.212Z,12.47
2022-12-19T09:34:41.765Z,11.90
2022-12-19T09:37:16.812Z,11.43
2022-12-19T09:39:48.487Z,12.53
2022-12-19T09:42:52.047Z,10.90
2022-12-19T09:45:43.611Z,12.30
2022-12-19T09:48:24.113Z,12.53
2022-12-19T09:51:09.637Z,13.97
2022-12-19T09:53:54.430Z,12.10
2022-12-19T09:56:30.552Z,11.13
2022-12-19T09:59:13.238Z,12.83
2022-12-19T10:01:55.578Z,14.97
2022-12-19T10:04:27.963Z,13.67
2022-12-19T10:07:21.975Z,13.90
2022-12-19T10:11:56.364Z,11.83
2022-12-19T10:13:00.078Z,14.85
2022-12-19T10:15:44.897Z,14.27
2022-12-19T10:18:39.184Z,15.10
2022-12-19T10:21:12.998Z,16.17
2022-12-19T10:24:11.151Z,12.93
2022-12-19T10:26:46.586Z,13.10
2022-12-19T10:29:57.492Z,12.43
2022-12-19T10:32:37.748Z,13.33
2022-12-19T10:35:16.215Z,13.10
2022-12-19T10:37:52.177Z,13.83
2022-12-19T10:40:29.424Z,15.10
2022-12-19T10:43:10.991Z,13.20
2022-12-19T10:45:49.566Z,13.83
2022-12-19T10:48:27.720Z,10.93
2022-12-19T10:51:00.615Z,12.87
2022-12-19T10:53:35.299Z,11.53
2022-12-19T10:56:14.275Z,13.27
2022-12-19T10:58:45.827Z,14.00
2022-12-19T11:01:23.333Z,13.33
2022-12-19T11:04:23.121Z,12.77
2022-12-19T11:07:05.667Z,11.27
2022-12-19T11:09:40.017Z,13.47
2022-12-19T11:15:45.959Z,12.97
2022-12-19T11:20:45.214Z,12.00
2022-12-19T11:26:24.828Z,11.90
2022-12-19T11:29:27.156Z,12.97
2022-12-19T11:29:38.944Z,13.83
2022-12-19T11:30:41.547Z,13.93
2022-12-19T11:32:43.865Z,12.73
2022-12-19T11:35:24.648Z,12.33
2022-12-19T11:37:57.381Z,12.40
2022-12-19T11:40:34.679Z,11.30
2022-12-19T11:43:43.376Z,12.40
2022-12-19T11:46:04.105Z,11.13
2022-12-19T11:48:41.351Z,14.00
2022-12-19T11:51:23.579Z,13.33
2022-12-19T11:54:03.543Z,13.47
2022-12-19T11:56:31.990Z,13.00
2022-12-19T11:59:04.309Z,12.53
2022-12-19T12:01:53.275Z,14.07
2022-12-19T12:04:49.300Z,12.03
2022-12-19T12:07:42.320Z,13.07
2022-12-19T12:15:37.938Z,13.57
2022-12-19T12:19:44.387Z,15.07
2022-12-19T12:26:24.256Z,14.83
2022-12-19T12:31:20.197Z,14.93
2022-12-19T12:31:28.475Z,15.67
2022-12-19T12:31:56.214Z,15.30
2022-12-19T12:35:16.614Z,14.93
2022-12-19T12:35:52.365Z,16.07
2022-12-19T12:38:34.361Z,16.23
2022-12-19T12:41:20.586Z,14.63
2022-12-19T12:44:08.544Z,14.57
2022-12-19T12:46:41.462Z,14.33
2022-12-19T12:49:33.891Z,16.13
2022-12-19T12:52:04.251Z,15.03
2022-12-19T12:54:39.159Z,16.10
2022-12-19T12:57:07.625Z,18.93
2022-12-19T12:59:36.027Z,15.57
2022-12-19T13:02:18.271Z,16.27
2022-12-19T13:04:59.026Z,14.23
2022-12-19T13:07:42.530Z,18.53
2022-12-19T13:10:26.373Z,14.43
2022-12-19T13:13:14.998Z,16.60
2022-12-19T13:15:46.193Z,15.87
2022-12-19T13:18:35.171Z,14.43
2022-12-19T13:21:08.851Z,15.97
2022-12-19T13:23:49.400Z,14.87
2022-12-19T13:26:52.399Z,12.57
2022-12-19T13:29:35.026Z,14.70
2022-12-19T13:32:16.952Z,12.70
2022-12-19T13:35:28.215Z,14.77
2022-12-19T13:39:50.679Z,15.43
2022-12-19T13:40:59.895Z,16.70
2022-12-19T13:43:48.297Z,18.00
2022-12-19T13:46:41.554Z,16.30
2022-12-19T13:49:16.381Z,14.20
2022-12-19T13:51:49.499Z,16.13
2022-12-19T13:54:24.012Z,15.83
2022-12-19T13:56:54.302Z,15.33
2022-12-19T13:59:27.684Z,15.17
2022-12-19T14:01:56.777Z,15.00
2022-12-19T14:04:31.204Z,15.33
2022-12-19T14:07:04.663Z,15.13
2022-12-19T14:11:32.717Z,15.53
2022-12-19T14:13:46.095Z,16.10
2022-12-19T14:15:45.112Z,15.47
2022-12-19T14:18:42.603Z,17.33
2022-12-19T14:22:11.848Z,17.63
2022-12-19T14:24:18.975Z,17.75
2022-12-19T14:28:23.736Z,18.10
2022-12-19T14:30:28.908Z,16.30
2022-12-19T14:33:53.578Z,15.17
2022-12-19T14:36:10.922Z,19.17
2022-12-19T14:39:20.872Z,16.50
2022-12-19T14:41:42.197Z,16.77
2022-12-19T14:52:25.876Z,16.73
2022-12-19T14:54:06.516Z,15.80
2022-12-19T14:54:25.676Z,20.90
2022-12-19T14:54:30.695Z,15.17
2022-12-19T14:56:16.725Z,15.60
2022-12-19T14:58:53.873Z,15.00
2022-12-19T15:01:26.488Z,16.17
2022-12-19T15:04:47.661Z,18.48
2022-12-19T15:07:08.176Z,18.43
2022-12-19T15:11:02.904Z,15.77
2022-12-19T15:14:48.492Z,17.57
2022-12-19T15:16:05.893Z,16.13
2022-12-19T15:18:42.720Z,19.90
2022-12-19T15:21:14.341Z,16.60
2022-12-19T15:23:45.910Z,16.07
2022-12-19T15:26:18.039Z,17.73
2022-12-19T15:28:51.163Z,18.17
2022-12-19T15:31:32.428Z,17.47
2022-12-19T15:36:49.411Z,16.10
2022-12-19T15:39:19.836Z,18.90
2022-12-19T15:41:51.829Z,19.50
2022-12-19T15:44:27.384Z,18.43
2022-12-19T15:46:56.084Z,16.73
2022-12-19T15:49:24.597Z,16.50
2022-12-19T15:51:53.378Z,18.47
2022-12-19T15:54:48.843Z,17.10
2022-12-19T15:57:25.704Z,17.17
2022-12-19T15:59:54.666Z,17.00
2022-12-19T16:02:42.728Z,21.13
2022-12-19T16:05:16.942Z,17.17
2022-12-19T16:07:46.321Z,15.20
2022-12-19T16:10:17.468Z,17.73
2022-12-19T16:12:49.761Z,18.17
2022-12-19T16:15:26.434Z,14.17
2022-12-19T16:17:55.883Z,18.67
2022-12-19T16:20:26.916Z,17.33
2022-12-19T16:22:56.129Z,20.93
2022-12-19T16:25:33.243Z,19.40
2022-12-19T16:28:03.528Z,16.33
2022-12-19T16:30:34.842Z,15.97
2022-12-19T16:33:03.324Z,18.37
2022-12-19T16:36:03.089Z,18.67
2022-12-19T16:38:22.140Z,17.80
2022-12-19T16:40:53.411Z,18.63
2022-12-19T16:43:29.621Z,17.40
2022-12-19T16:46:01.583Z,18.83
2022-12-19T16:48:31.324Z,18.57
2022-12-19T16:51:00.896Z,19.37
2022-12-19T16:53:29.523Z,20.30
2022-12-19T16:56:00.742Z,20.67
2022-12-19T16:58:30.634Z,17.30
2022-12-19T17:00:59.216Z,20.83
2022-12-19T17:03:36.276Z,20.67
2022-12-19T17:06:05.755Z,18.87
2022-12-19T17:08:34.434Z,18.70
2022-12-19T17:11:04.319Z,17.70
2022-12-19T17:13:33.672Z,16.23
2022-12-19T17:16:02.672Z,20.73
2022-12-19T17:18:35.892Z,19.10
2022-12-19T17:21:04.580Z,16.70
2022-12-19T17:23:33.471Z,17.87
2022-12-19T17:26:03.391Z,15.37
2022-12-19T17:28:32.291Z,19.80
2022-12-19T17:31:05.568Z,16.30
2022-12-19T17:33:37.495Z,18.17
2022-12-19T17:36:08.100Z,20.80
2022-12-19T17:38:37.048Z,20.77
2022-12-19T17:41:07.189Z,20.57
2022-12-19T17:43:35.582Z,17.50
2022-12-19T17:46:04.752Z,17.07
2022-12-19T17:48:34.523Z,16.70
2022-12-19T17:51:04.040Z,17.17
2022-12-19T17:53:32.630Z,17.97
2022-12-19T17:56:01.013Z,17.90
2022-12-19T17:58:30.979Z,18.00
2022-12-19T18:00:59.488Z,17.23
2022-12-19T18:03:28.256Z,18.60
2022-12-19T18:05:57.872Z,18.83
2022-12-19T18:08:29.664Z,17.80
2022-12-19T18:11:00.631Z,18.13
2022-12-19T18:13:32.828Z,19.20
2022-12-19T18:16:04.207Z,17.60
2022-12-19T18:18:37.084Z,18.47
2022-12-19T18:21:06.588Z,16.70
2022-12-19T18:23:35.339Z,16.37
2022-12-19T18:26:03.918Z,17.00
2022-12-19T18:28:34.411Z,18.13
2022-12-19T18:31:11.699Z,19.23
2022-12-19T18:33:42.974Z,18.33
2022-12-19T18:36:20.410Z,17.30
2022-12-19T18:38:49.390Z,17.20
2022-12-19T18:41:19.768Z,19.10
2022-12-19T18:43:50.574Z,20.83
2022-12-19T18:46:25.132Z,17.53
2022-12-19T18:48:53.972Z,16.47
2022-12-19T18:51:24.589Z,19.50
2022-12-19T18:53:53.908Z,18.00
2022-12-19T18:56:22.564Z,19.83
2022-12-19T18:58:52.606Z,18.63
2022-12-19T19:01:23.006Z,17.73
2022-12-19T19:03:56.035Z,18.67
2022-12-19T19:06:28.549Z,18.40
2022-12-19T19:08:58.576Z,19.30
2022-12-19T19:11:29.401Z,17.87
2022-12-19T19:13:59.533Z,19.07
2022-12-19T19:16:29.090Z,17.40
2022-12-19T19:18:59.827Z,15.37
2022-12-19T19:21:33.527Z,18.57
2022-12-19T19:24:08.286Z,17.37
2022-12-19T19:26:38.148Z,16.07
2022-12-19T19:29:10.393Z,18.57
2022-12-19T19:31:41.977Z,19.07
2022-12-19T19:34:17.082Z,17.27
2022-12-19T19:36:49.552Z,17.77
2022-12-19T19:39:19.964Z,18.70
2022-12-19T19:41:48.438Z,17.63
2022-12-19T19:44:18.682Z,19.23
2022-12-19T19:46:47.669Z,17.80
2022-12-19T19:49:16.658Z,17.67
2022-12-19T19:51:45.379Z,16.37
2022-12-19T19:54:13.878Z,17.93
2022-12-19T19:56:43.336Z,17.43
2022-12-19T19:59:12.237Z,19.70
2022-12-19T20:01:42.749Z,18.10
2022-12-19T20:04:11.698Z,19.50
2022-12-19T20:06:41.451Z,17.03
2022-12-19T20:09:10.357Z,17.97
2022-12-19T20:11:38.921Z,17.40
2022-12-19T20:14:07.722Z,19.03
2022-12-19T20:16:38.017Z,18.87
2022-12-19T20:19:07.878Z,17.03
2022-12-19T20:21:36.284Z,18.00
2022-12-19T20:24:05.531Z,18.53
2022-12-19T20:26:34.576Z,18.07
2022-12-19T20:29:04.000Z,17.17
2022-12-19T20:31:32.636Z,16.13
2022-12-19T20:34:02.629Z,16.33
2022-12-19T20:36:32.731Z,19.57
2022-12-19T20:39:02.520Z,18.43
2022-12-19T20:41:31.299Z,19.37
2022-12-19T20:44:00.115Z,17.77
2022-12-19T20:46:29.099Z,17.40
2022-12-19T20:48:59.240Z,19.10
2022-12-19T20:51:27.923Z,17.60
2022-12-19T20:53:57.903Z,15.23
2022-12-19T20:56:26.909Z,17.17
2022-12-19T20:58:55.542Z,17.60
2022-12-19T21:01:26.225Z,18.37
2022-12-19T21:03:54.901Z,15.93
2022-12-19T21:06:27.089Z,15.67
2022-12-19T21:08:59.013Z,15.33
2022-12-19T21:11:27.558Z,17.87
2022-12-19T21:13:56.036Z,17.63
2022-12-19T21:16:25.158Z,16.40
2022-12-19T21:18:53.595Z,14.17
2022-12-19T21:21:24.985Z,15.03
2022-12-19T21:23:54.799Z,15.07
2022-12-19T21:26:27.004Z,18.53
2022-12-19T21:28:57.892Z,16.33
2022-12-19T21:31:29.855Z,19.07
2022-12-19T21:34:01.000Z,18.40
2022-12-19T21:36:31.084Z,16.73
2022-12-19T21:39:01.961Z,17.20
2022-12-19T21:41:33.221Z,16.33
2022-12-19T21:44:01.931Z,18.73
2022-12-19T21:46:33.174Z,17.60
2022-12-19T21:49:02.942Z,16.13
2022-12-19T21:51:33.361Z,16.27
2022-12-19T21:54:04.913Z,22.13
2022-12-19T21:56:38.827Z,18.80
2022-12-19T21:59:11.871Z,16.53
2022-12-19T22:01:41.458Z,18.97
2022-12-19T22:04:14.186Z,18.40
2022-12-19T22:06:42.811Z,22.07
2022-12-19T22:09:15.249Z,15.87
2022-12-19T22:11:46.265Z,20.53
2022-12-19T22:14:16.505Z,18.00
2022-12-19T22:16:45.257Z,19.23
2022-12-19T22:19:17.015Z,17.43
2022-12-19T22:21:46.760Z,20.27
2022-12-19T22:24:17.104Z,17.77
2022-12-19T22:26:46.957Z,17.77
2022-12-19T22:29:18.143Z,18.97
2022-12-19T22:31:47.613Z,17.23
2022-12-19T22:34:18.895Z,16.10
2022-12-19T22:36:48.817Z,18.30
2022-12-19T22:39:20.019Z,17.67
2022-12-19T22:41:50.152Z,16.33
2022-12-19T22:44:21.571Z,18.87
2022-12-19T22:46:51.167Z,19.50
2022-12-19T22:49:19.728Z,16.07
2022-12-19T22:51:48.327Z,19.37
2022-12-19T22:54:16.787Z,20.27
2022-12-19T22:56:45.319Z,20.23
2022-12-19T22:59:15.102Z,15.63
2022-12-19T23:01:45.143Z,17.80
2022-12-19T23:04:16.604Z,16.00
2022-12-19T23:06:45.631Z,16.40
2022-12-19T23:09:17.180Z,18.27
2022-12-19T23:11:48.850Z,17.67
2022-12-19T23:14:20.497Z,16.67
2022-12-19T23:16:49.667Z,17.33
2022-12-19T23:19:18.795Z,17.23
2022-12-19T23:21:47.349Z,17.63
2022-12-19T23:24:15.984Z,15.93
2022-12-19T23:26:44.636Z,15.73
2022-12-19T23:29:15.692Z,18.70
2022-12-19T23:31:48.139Z,16.07
2022-12-19T23:34:17.565Z,16.60
2022-12-19T23:37:10.182Z,16.67
2022-12-19T23:39:34.812Z,14.20
2022-12-19T23:42:03.269Z,14.63
2022-12-19T23:44:31.752Z,19.07
2022-12-19T23:47:03.711Z,16.93
2022-12-19T23:49:33.244Z,16.90
2022-12-19T23:52:01.676Z,16.23
2022-12-19T23:54:30.192Z,17.90
2022-12-19T23:56:58.621Z,14.67
2022-12-19T23:59:27.154Z,21.13
